createdAt,value
2018-11-21T00:00:01.870Z,25.70
2018-11-21T00:01:01.897Z,25.40
2018-11-21T00:02:01.862Z,24.90
2018-11-21T00:03:01.831Z,25.60
2018-11-21T00:04:01.838Z,25.20
2018-11-21T00:05:01.807Z,25.30
2018-11-21T00:06:01.799Z,25.10
2018-11-21T00:07:01.810Z,25.40
2018-11-21T00:08:01.774Z,25.50
2018-11-21T00:09:01.790Z,25.70
2018-11-21T00:10:01.759Z,25.60
2018-11-21T00:11:01.748Z,24.80
2018-11-21T00:12:01.762Z,26.10
2018-11-21T00:13:01.728Z,25.60
2018-11-21T00:14:01.709Z,25.70
2018-11-21T00:15:01.701Z,25.20
2018-11-21T00:16:01.699Z,26.30
2018-11-21T00:17:01.709Z,25.70
2018-11-21T00:18:01.668Z,25.10
2018-11-21T00:19:01.678Z,24.90
2018-11-21T00:20:01.665Z,25.50
2018-11-21T00:21:01.631Z,25.60
2018-11-21T00:22:01.622Z,24.20
2018-11-21T00:23:01.609Z,25.90
2018-11-21T00:24:01.610Z,26.70
2018-11-21T00:25:01.617Z,24.60
2018-11-21T00:26:01.578Z,26.30
2018-11-21T00:27:01.570Z,26.60
2018-11-21T00:28:01.555Z,26.70
2018-11-21T00:29:01.541Z,25.20
2018-11-21T00:30:01.560Z,25.30
2018-11-21T00:31:01.537Z,25.50
2018-11-21T00:32:01.512Z,25.60
2018-11-21T00:33:01.513Z,24.70
2018-11-21T00:34:01.485Z,26.40
2018-11-21T00:35:01.492Z,24.90
2018-11-21T00:36:01.464Z,26.10
2018-11-21T00:37:01.500Z,25.40
2018-11-21T00:38:01.442Z,25.30
2018-11-21T00:39:01.431Z,25.20
2018-11-21T00:40:01.458Z,26.50
2018-11-21T00:41:01.413Z,25.10
2018-11-21T00:42:01.443Z,26.00
2018-11-21T00:43:01.387Z,25.40
2018-11-21T00:44:01.378Z,24.20
2018-11-21T00:45:01.363Z,25.40
2018-11-21T00:46:01.368Z,26.30
2018-11-21T00:47:01.379Z,26.00
2018-11-21T00:48:01.341Z,25.20
2018-11-21T00:49:01.321Z,25.30
2018-11-21T00:50:01.308Z,25.90
2018-11-21T00:51:01.330Z,25.40
2018-11-21T00:52:01.288Z,24.60
2018-11-21T00:53:01.281Z,26.00
2018-11-21T00:54:01.272Z,26.00
2018-11-21T00:55:01.287Z,26.20
2018-11-21T00:56:01.273Z,25.00
2018-11-21T00:57:01.251Z,25.60
2018-11-21T00:58:01.218Z,25.90
2018-11-21T00:59:01.239Z,25.00
2018-11-21T01:00:01.198Z,25.40
2018-11-21T01:01:01.191Z,25.50
2018-11-21T01:02:01.178Z,25.10
2018-11-21T01:03:01.183Z,26.00
2018-11-21T01:04:01.212Z,25.90
2018-11-21T01:05:01.140Z,25.20
2018-11-21T01:06:01.157Z,25.70
2018-11-21T01:07:01.125Z,26.00
2018-11-21T01:08:01.108Z,25.50
2018-11-21T01:09:01.129Z,25.40
2018-11-21T01:10:01.091Z,26.40
2018-11-21T01:11:01.096Z,25.70
2018-11-21T01:12:01.064Z,26.80
2018-11-21T01:13:01.051Z,26.10
2018-11-21T01:14:01.076Z,25.10
2018-11-21T01:15:01.037Z,26.50
2018-11-21T01:16:01.022Z,25.70
2018-11-21T01:17:01.036Z,25.80
2018-11-21T01:18:01.028Z,26.10
2018-11-21T01:19:00.995Z,25.60
2018-11-21T01:20:00.977Z,26.50
2018-11-21T01:21:00.979Z,26.10
2018-11-21T01:22:00.954Z,26.70
2018-11-21T01:23:00.966Z,26.40
2018-11-21T01:24:00.932Z,25.20
2018-11-21T01:25:00.935Z,26.80
2018-11-21T01:26:00.951Z,25.60
2018-11-21T01:27:00.899Z,26.00
2018-11-21T01:28:00.912Z,26.10
2018-11-21T01:29:00.877Z,26.70
2018-11-21T01:30:00.887Z,27.60
2018-11-21T01:31:00.862Z,26.40
2018-11-21T01:32:00.865Z,25.30
2018-11-21T01:33:00.832Z,25.50
2018-11-21T01:34:00.843Z,25.80
2018-11-21T01:35:00.808Z,25.70
2018-11-21T01:36:00.824Z,26.00
2018-11-21T01:37:00.793Z,26.80
2018-11-21T01:38:00.777Z,26.40
2018-11-21T01:39:00.767Z,26.00
2018-11-21T01:40:00.754Z,25.40
2018-11-21T01:41:00.777Z,26.60
2018-11-21T01:42:00.736Z,25.60
2018-11-21T01:43:00.740Z,24.80
2018-11-21T01:44:00.709Z,24.80
2018-11-21T01:45:00.717Z,24.90
2018-11-21T01:46:00.721Z,24.00
2018-11-21T01:47:00.678Z,24.40
2018-11-21T01:48:00.695Z,25.60
2018-11-21T01:49:00.666Z,26.10
2018-11-21T01:50:00.642Z,26.10
2018-11-21T01:51:00.634Z,24.70
2018-11-21T01:52:00.664Z,25.10
2018-11-21T01:53:00.613Z,25.30
2018-11-21T01:54:00.610Z,25.30
2018-11-21T01:55:00.589Z,25.20
2018-11-21T01:56:00.609Z,24.60
2018-11-21T01:57:00.569Z,24.40
2018-11-21T01:58:00.578Z,24.60
2018-11-21T01:59:00.558Z,25.20
2018-11-21T02:00:00.534Z,24.40
2018-11-21T02:01:00.554Z,23.40
2018-11-21T02:02:00.513Z,24.40
2018-11-21T02:03:00.508Z,24.00
2018-11-21T02:04:00.490Z,24.70
2018-11-21T02:05:00.488Z,24.60
2018-11-21T02:06:00.488Z,23.40
2018-11-21T02:07:00.453Z,24.70
2018-11-21T02:08:00.507Z,24.80
2018-11-21T02:09:00.433Z,24.60
2018-11-21T02:10:00.425Z,24.40
2018-11-21T02:11:00.435Z,25.30
2018-11-21T02:12:00.400Z,25.00
2018-11-21T02:13:00.391Z,24.50
2018-11-21T02:14:00.394Z,23.40
2018-11-21T02:15:00.367Z,24.70
2018-11-21T02:16:00.389Z,24.70
2018-11-21T02:17:00.369Z,23.80
2018-11-21T02:18:00.331Z,24.60
2018-11-21T02:19:00.325Z,25.00
2018-11-21T02:20:00.338Z,24.70
2018-11-21T02:21:00.298Z,24.90
2018-11-21T02:22:00.338Z,24.50
2018-11-21T02:23:00.277Z,24.50
2018-11-21T02:24:00.264Z,24.10
2018-11-21T02:25:00.279Z,24.10
2018-11-21T02:26:00.255Z,23.60
2018-11-21T02:27:00.237Z,24.40
2018-11-21T02:28:00.266Z,24.20
2018-11-21T02:29:00.235Z,24.50
2018-11-21T02:30:00.200Z,24.30
2018-11-21T02:31:00.190Z,24.10
2018-11-21T02:32:00.184Z,24.90
2018-11-21T02:33:00.193Z,25.20
2018-11-21T02:34:00.156Z,25.80
2018-11-21T02:35:00.149Z,25.00
2018-11-21T02:36:00.150Z,24.50
2018-11-21T02:37:00.138Z,23.90
2018-11-21T02:38:00.153Z,25.50
2018-11-21T02:39:00.113Z,25.10
2018-11-21T02:40:00.098Z,24.80
2018-11-21T02:41:00.080Z,25.00
2018-11-21T02:42:00.069Z,26.30
2018-11-21T02:43:00.080Z,25.90
2018-11-21T02:44:00.048Z,25.70
2018-11-21T02:45:00.077Z,26.00
2018-11-21T02:46:00.026Z,25.60
2018-11-21T02:47:00.015Z,25.60
2018-11-21T02:48:00.031Z,25.80
2018-11-21T02:48:59.990Z,25.40
2018-11-21T02:49:59.981Z,24.80
2018-11-21T02:50:59.966Z,25.60
2018-11-21T02:51:59.982Z,25.40
2018-11-21T02:52:59.982Z,25.50
2018-11-21T02:53:59.938Z,26.50
2018-11-21T02:54:59.932Z,26.00
2018-11-21T02:55:59.911Z,25.30
2018-11-21T02:56:59.932Z,27.10
2018-11-21T02:57:59.923Z,25.90
2018-11-21T02:58:59.879Z,24.70
2018-11-21T02:59:59.880Z,26.70
2018-11-21T03:00:59.861Z,25.80
2018-11-21T03:01:59.849Z,26.10
2018-11-21T03:02:59.859Z,26.00
2018-11-21T03:03:59.823Z,27.30
2018-11-21T03:04:59.815Z,27.00
2018-11-21T03:05:59.802Z,26.80
2018-11-21T03:06:59.810Z,26.70
2018-11-21T03:07:59.804Z,26.40
2018-11-21T03:08:59.782Z,25.60
2018-11-21T03:09:59.757Z,25.60
2018-11-21T03:10:59.755Z,27.60
2018-11-21T03:11:59.736Z,26.40
2018-11-21T03:12:59.758Z,25.80
2018-11-21T03:13:59.712Z,27.10
2018-11-21T03:14:59.717Z,26.50
2018-11-21T03:15:59.691Z,26.80
2018-11-21T03:16:59.721Z,26.30
2018-11-21T03:17:59.671Z,26.60
2018-11-21T03:18:59.660Z,28.20
2018-11-21T03:19:59.663Z,27.40
2018-11-21T03:20:59.661Z,26.20
2018-11-21T03:21:59.624Z,26.30
2018-11-21T03:22:59.636Z,26.80
2018-11-21T03:23:59.604Z,26.00
2018-11-21T03:24:59.593Z,27.70
2018-11-21T03:25:59.580Z,27.10
2018-11-21T03:26:59.578Z,26.90
2018-11-21T03:27:59.582Z,26.10
2018-11-21T03:28:59.571Z,26.50
2018-11-21T03:29:59.539Z,26.50
2018-11-21T03:30:59.582Z,26.90
2018-11-21T03:31:59.513Z,25.90
2018-11-21T03:32:59.529Z,25.90
2018-11-21T03:33:59.490Z,26.60
2018-11-21T03:34:59.530Z,27.00
2018-11-21T03:35:59.469Z,26.60
2018-11-21T03:36:59.458Z,26.60
2018-11-21T03:37:59.447Z,27.60
2018-11-21T03:38:59.438Z,26.60
2018-11-21T03:39:59.524Z,25.40
2018-11-21T03:40:59.413Z,26.40
2018-11-21T03:41:59.406Z,26.50
2018-11-21T03:42:59.398Z,26.20
2018-11-21T03:43:59.383Z,26.60
2018-11-21T03:44:59.393Z,25.60
2018-11-21T03:45:59.368Z,25.90
2018-11-21T03:46:59.404Z,26.60
2018-11-21T03:47:59.336Z,26.10
2018-11-21T03:48:59.380Z,25.70
2018-11-21T03:49:59.346Z,25.30
2018-11-21T03:50:59.327Z,26.40
2018-11-21T03:51:59.327Z,26.90
2018-11-21T03:52:59.287Z,26.60
2018-11-21T03:53:59.294Z,25.30
2018-11-21T03:54:59.261Z,26.40
2018-11-21T03:55:59.249Z,25.70
2018-11-21T03:56:59.263Z,25.60
2018-11-21T03:57:59.227Z,26.50
2018-11-21T03:58:59.221Z,25.80
2018-11-21T03:59:59.239Z,24.70
2018-11-21T04:00:59.191Z,26.10
2018-11-21T04:01:59.192Z,26.40
2018-11-21T04:02:59.218Z,26.90
2018-11-21T04:03:59.173Z,26.60
2018-11-21T04:04:59.153Z,25.20
2018-11-21T04:05:59.137Z,25.00
2018-11-21T04:06:59.159Z,25.30
2018-11-21T04:07:59.139Z,25.80
2018-11-21T04:08:59.136Z,25.90
2018-11-21T04:09:59.099Z,26.50
2018-11-21T04:10:59.085Z,25.40
2018-11-21T04:11:59.076Z,26.00
2018-11-21T04:12:59.074Z,26.60
2018-11-21T04:13:59.073Z,26.40
2018-11-21T04:14:59.039Z,26.10
2018-11-21T04:15:59.143Z,25.10
2018-11-21T04:16:59.015Z,25.30
2018-11-21T04:17:59.014Z,25.70
2018-11-21T04:18:58.997Z,26.00
2018-11-21T04:19:59.027Z,25.80
2018-11-21T04:20:59.006Z,25.10
2018-11-21T04:21:58.967Z,25.30
2018-11-21T04:22:58.958Z,25.10
2018-11-21T04:23:58.938Z,24.30
2018-11-21T04:24:58.932Z,26.00
2018-11-21T04:25:58.933Z,26.60
2018-11-21T04:26:58.904Z,25.20
2018-11-21T04:27:58.918Z,25.00
2018-11-21T04:28:58.915Z,25.30
2018-11-21T04:29:58.872Z,25.20
2018-11-21T04:30:58.866Z,26.10
2018-11-21T04:31:58.855Z,24.90
2018-11-21T04:32:58.842Z,26.20
2018-11-21T04:33:58.861Z,25.40
2018-11-21T04:34:58.822Z,25.40
2018-11-21T04:35:58.816Z,24.70
2018-11-21T04:36:58.795Z,24.80
2018-11-21T04:37:58.785Z,25.50
2018-11-21T04:38:58.806Z,25.10
2018-11-21T04:39:58.786Z,25.40
2018-11-21T04:40:58.754Z,25.30
2018-11-21T04:41:58.752Z,24.30
2018-11-21T04:42:58.733Z,25.60
2018-11-21T04:43:58.722Z,26.20
2018-11-21T04:44:58.752Z,24.40
2018-11-21T04:45:58.693Z,26.30
2018-11-21T04:46:58.690Z,25.50
2018-11-21T04:47:58.681Z,24.90
2018-11-21T04:48:58.670Z,24.50
2018-11-21T04:49:58.691Z,25.60
2018-11-21T04:50:58.644Z,25.40
2018-11-21T04:51:58.664Z,25.40
2018-11-21T04:52:58.616Z,25.30
2018-11-21T04:53:58.608Z,25.40
2018-11-21T04:54:58.606Z,24.70
2018-11-21T04:55:58.603Z,24.40
2018-11-21T04:56:58.576Z,24.70
2018-11-21T04:57:58.563Z,25.20
2018-11-21T04:58:58.551Z,24.00
2018-11-21T04:59:58.539Z,24.60
2018-11-21T05:00:58.585Z,25.50
2018-11-21T05:01:58.517Z,24.10
2018-11-21T05:02:58.509Z,24.10
2018-11-21T05:03:58.495Z,24.40
2018-11-21T05:04:58.490Z,24.10
2018-11-21T05:05:58.498Z,23.30
2018-11-21T05:06:58.480Z,24.70
2018-11-21T05:07:58.468Z,24.60
2018-11-21T05:08:58.439Z,25.10
2018-11-21T05:09:58.429Z,24.60
2018-11-21T05:10:58.477Z,23.80
2018-11-21T05:11:58.406Z,23.80
2018-11-21T05:12:58.402Z,25.00
2018-11-21T05:13:58.428Z,24.10
2018-11-21T05:14:58.399Z,23.50
2018-11-21T05:15:58.361Z,24.40
2018-11-21T05:16:58.386Z,23.40
2018-11-21T05:17:58.378Z,22.90
2018-11-21T05:18:58.330Z,24.10
2018-11-21T05:19:58.336Z,22.20
2018-11-21T05:20:58.306Z,23.20
2018-11-21T05:21:58.349Z,24.50
2018-11-21T05:22:58.294Z,23.20
2018-11-21T05:23:58.277Z,23.50
2018-11-21T05:24:58.264Z,22.90
2018-11-21T05:25:58.261Z,22.80
2018-11-21T05:26:58.285Z,23.40
2018-11-21T05:27:58.233Z,24.00
2018-11-21T05:28:58.218Z,22.60
2018-11-21T05:29:58.235Z,23.50
2018-11-21T05:30:58.195Z,24.30
2018-11-21T05:31:58.212Z,23.60
2018-11-21T05:32:58.270Z,23.20
2018-11-21T05:33:58.162Z,23.90
2018-11-21T05:34:58.151Z,23.50
2018-11-21T05:35:58.180Z,23.70
2018-11-21T05:36:58.132Z,22.10
2018-11-21T05:37:58.126Z,22.10
2018-11-21T05:38:58.109Z,23.00
2018-11-21T05:39:58.139Z,22.60
2018-11-21T05:40:58.085Z,24.20
2018-11-21T05:41:58.120Z,22.90
2018-11-21T05:42:58.090Z,22.80
2018-11-21T05:43:58.057Z,23.40
2018-11-21T05:44:58.045Z,24.00
2018-11-21T05:45:58.051Z,23.70
2018-11-21T05:46:58.080Z,24.00
2018-11-21T05:47:58.049Z,23.00
2018-11-21T05:48:57.998Z,24.40
2018-11-21T05:49:57.992Z,23.50
2018-11-21T05:50:58.002Z,23.00
2018-11-21T05:51:57.995Z,22.80
2018-11-21T05:52:57.954Z,23.30
2018-11-21T05:53:57.942Z,22.80
2018-11-21T05:54:57.985Z,23.80
2018-11-21T05:55:57.919Z,24.50
2018-11-21T05:56:57.917Z,23.40
2018-11-21T05:57:57.903Z,23.60
2018-11-21T05:58:57.885Z,22.80
2018-11-21T05:59:57.938Z,22.60
2018-11-21T06:00:57.868Z,23.20
2018-11-21T06:01:57.861Z,22.80
2018-11-21T06:02:57.843Z,24.20
2018-11-21T06:03:57.833Z,23.90
2018-11-21T06:04:57.870Z,24.40
2018-11-21T06:05:57.812Z,24.10
2018-11-21T06:06:57.799Z,24.50
2018-11-21T06:07:57.788Z,24.20
2018-11-21T06:08:57.796Z,24.20
2018-11-21T06:09:57.800Z,23.90
2018-11-21T06:10:57.756Z,23.00
2018-11-21T06:12:00.912Z,23.20
2018-11-21T06:12:58.747Z,23.40
2018-11-21T06:13:57.724Z,23.30
2018-11-21T06:14:57.739Z,23.10
2018-11-21T06:15:57.699Z,24.80
2018-11-21T06:16:57.689Z,24.80
2018-11-21T06:17:57.719Z,23.80
2018-11-21T06:18:57.694Z,23.70
2018-11-21T06:19:57.660Z,23.10
2018-11-21T06:20:57.647Z,24.10
2018-11-21T06:21:57.635Z,23.40
2018-11-21T06:22:57.690Z,23.90
2018-11-21T06:23:57.610Z,25.60
2018-11-21T06:24:57.609Z,24.80
2018-11-21T06:25:57.587Z,24.30
2018-11-21T06:26:57.704Z,24.70
2018-11-21T06:27:57.617Z,23.80
2018-11-21T06:28:57.578Z,24.20
2018-11-21T06:29:57.575Z,23.10
2018-11-21T06:30:57.531Z,24.40
2018-11-21T06:31:57.533Z,23.80
2018-11-21T06:32:57.512Z,24.40
2018-11-21T06:33:57.556Z,24.10
2018-11-21T06:34:57.488Z,23.70
2018-11-21T06:35:57.480Z,24.70
2018-11-21T06:36:57.466Z,24.10
2018-11-21T06:37:57.483Z,25.20
2018-11-21T06:38:57.478Z,24.80
2018-11-21T06:39:57.437Z,24.20
2018-11-21T06:40:57.449Z,25.10
2018-11-21T06:41:57.411Z,24.50
2018-11-21T06:42:57.407Z,24.80
2018-11-21T06:43:57.398Z,25.30
2018-11-21T06:44:57.411Z,24.90
2018-11-21T06:45:57.370Z,24.60
2018-11-21T06:46:57.354Z,24.70
2018-11-21T06:47:57.373Z,24.50
2018-11-21T06:48:57.367Z,25.00
2018-11-21T06:49:57.322Z,25.10
2018-11-21T06:50:57.325Z,25.50
2018-11-21T06:51:57.299Z,25.10
2018-11-21T06:52:57.287Z,25.20
2018-11-21T06:53:57.302Z,24.90
2018-11-21T06:54:57.272Z,24.90
2018-11-21T06:55:57.275Z,24.90
2018-11-21T06:56:57.276Z,24.20
2018-11-21T06:57:57.237Z,25.50
2018-11-21T06:58:57.222Z,25.70
2018-11-21T06:59:57.211Z,25.10
2018-11-21T07:00:57.238Z,25.90
2018-11-21T07:01:57.205Z,25.30
2018-11-21T07:02:57.176Z,25.00
2018-11-21T07:03:57.167Z,26.50
2018-11-21T07:04:57.157Z,25.70
2018-11-21T07:05:57.175Z,24.50
2018-11-21T07:06:57.164Z,25.40
2018-11-21T07:07:57.123Z,25.50
2018-11-21T07:08:57.142Z,26.00
2018-11-21T07:09:57.102Z,25.70
2018-11-21T07:10:57.095Z,26.00
2018-11-21T07:11:57.105Z,25.70
2018-11-21T07:12:57.066Z,26.80
2018-11-21T07:13:57.058Z,26.20
2018-11-21T07:14:57.075Z,25.80
2018-11-21T07:15:57.059Z,26.10
2018-11-21T07:16:57.037Z,25.50
2018-11-21T07:17:57.011Z,25.10
2018-11-21T07:18:57.021Z,26.00
2018-11-21T07:19:57.024Z,26.70
2018-11-21T07:20:56.979Z,26.20
2018-11-21T07:21:56.997Z,25.30
2018-11-21T07:22:56.962Z,24.90
2018-11-21T07:23:56.971Z,24.80
2018-11-21T07:24:56.975Z,26.20
2018-11-21T07:25:56.923Z,25.50
2018-11-21T07:26:56.955Z,25.40
2018-11-21T07:27:56.900Z,24.90
2018-11-21T07:28:56.889Z,25.80
2018-11-21T07:29:56.880Z,26.50
2018-11-21T07:30:56.885Z,24.90
2018-11-21T07:31:56.896Z,25.50
2018-11-21T07:32:56.876Z,26.10
2018-11-21T07:33:56.837Z,24.10
2018-11-21T07:34:56.825Z,26.30
2018-11-21T07:35:56.844Z,25.80
2018-11-21T07:36:56.832Z,26.70
2018-11-21T07:37:56.800Z,25.30
2018-11-21T07:38:56.803Z,26.00
2018-11-21T07:39:56.804Z,26.90
2018-11-21T07:40:56.787Z,25.80
2018-11-21T07:41:56.782Z,26.60
2018-11-21T07:42:56.786Z,27.10
2018-11-21T07:43:56.762Z,27.10
2018-11-21T07:44:56.714Z,26.40
2018-11-21T07:45:56.703Z,27.40
2018-11-21T07:46:56.716Z,27.40
2018-11-21T07:47:56.692Z,26.10
2018-11-21T07:48:56.696Z,27.30
2018-11-21T07:49:56.658Z,27.00
2018-11-21T07:50:59.273Z,27.20
2018-11-21T07:51:56.663Z,26.50
2018-11-21T07:52:56.626Z,27.40
2018-11-21T07:53:56.616Z,26.00
2018-11-21T07:54:56.603Z,26.00
2018-11-21T07:55:56.654Z,25.30
2018-11-21T07:56:56.613Z,27.10
2018-11-21T07:57:56.570Z,25.40
2018-11-21T07:58:56.559Z,26.90
2018-11-21T07:59:56.549Z,25.60
2018-11-21T08:00:56.537Z,26.30
2018-11-21T08:01:56.566Z,26.20
2018-11-21T08:02:56.545Z,26.70
2018-11-21T08:03:56.502Z,25.80
2018-11-21T08:04:56.491Z,26.50
2018-11-21T08:05:56.480Z,28.00
2018-11-21T08:06:56.500Z,26.80
2018-11-21T08:07:56.477Z,26.90
2018-11-21T08:08:56.474Z,26.80
2018-11-21T08:09:56.440Z,26.50
2018-11-21T08:10:56.448Z,26.00
2018-11-21T08:11:56.417Z,26.20
2018-11-21T08:12:56.412Z,25.90
2018-11-21T08:13:56.420Z,26.70
2018-11-21T08:14:56.400Z,26.50
2018-11-21T08:15:56.406Z,26.70
2018-11-21T08:16:56.357Z,26.70
2018-11-21T08:17:56.349Z,26.40
2018-11-21T08:18:56.364Z,26.80
2018-11-21T08:19:56.325Z,25.60
2018-11-21T08:20:56.315Z,26.30
2018-11-21T08:21:56.301Z,25.70
2018-11-21T08:22:56.289Z,26.10
2018-11-21T08:23:56.315Z,26.80
2018-11-21T08:24:56.283Z,27.30
2018-11-21T08:25:56.276Z,25.60
2018-11-21T08:26:56.269Z,25.90
2018-11-21T08:27:56.235Z,27.70
2018-11-21T08:28:56.231Z,25.20
2018-11-21T08:29:56.253Z,26.80
2018-11-21T08:30:56.202Z,26.00
2018-11-21T08:31:56.232Z,26.60
2018-11-21T08:32:56.183Z,25.60
2018-11-21T08:33:56.171Z,25.60
2018-11-21T08:34:56.180Z,27.30
2018-11-21T08:35:56.183Z,26.10
2018-11-21T08:36:56.135Z,26.00
2018-11-21T08:37:56.151Z,26.80
2018-11-21T08:38:56.118Z,27.90
2018-11-21T08:39:56.133Z,27.30
2018-11-21T08:40:56.167Z,26.50
2018-11-21T08:41:56.079Z,27.50
2018-11-21T08:42:56.104Z,26.10
2018-11-21T08:44:56.053Z,26.60
2018-11-21T08:45:56.041Z,25.80
2018-11-21T08:46:56.023Z,27.60
2018-11-21T08:47:56.054Z,27.60
2018-11-21T08:48:56.029Z,26.10
2018-11-21T08:49:55.990Z,26.70
2018-11-21T08:50:55.990Z,25.50
2018-11-21T08:51:56.009Z,27.60
2018-11-21T08:52:56.035Z,26.90
2018-11-21T08:53:55.954Z,27.50
2018-11-21T08:54:55.937Z,27.70
2018-11-21T08:55:55.949Z,27.80
2018-11-21T08:56:55.912Z,28.00
2018-11-21T08:57:55.900Z,26.60
2018-11-21T08:58:55.896Z,26.40
2018-11-21T08:59:55.892Z,27.60
2018-11-21T09:00:55.901Z,26.40
2018-11-21T09:01:55.881Z,27.20
2018-11-21T09:02:55.878Z,27.60
2018-11-21T09:03:55.839Z,26.40
2018-11-21T09:04:55.860Z,26.70
2018-11-21T09:05:55.812Z,25.90
2018-11-21T09:06:55.824Z,27.80
2018-11-21T09:07:55.792Z,27.80
2018-11-21T09:08:55.824Z,27.00
2018-11-21T09:09:55.783Z,27.00
2018-11-21T09:10:55.763Z,27.30
2018-11-21T09:11:55.779Z,27.70
2018-11-21T09:12:55.758Z,27.60
2018-11-21T09:13:55.721Z,27.80
2018-11-21T09:14:55.735Z,26.40
2018-11-21T09:15:55.707Z,28.60
2018-11-21T09:16:55.753Z,28.80
2018-11-21T09:17:55.680Z,27.30
2018-11-21T09:18:55.665Z,26.80
2018-11-21T09:19:55.652Z,27.00
2018-11-21T09:20:55.642Z,27.00
2018-11-21T09:21:55.664Z,27.70
2018-11-21T09:22:55.633Z,28.10
2018-11-21T09:23:55.649Z,27.70
2018-11-21T09:24:55.597Z,27.70
2018-11-21T09:25:55.595Z,28.20
2018-11-21T09:26:55.593Z,26.90
2018-11-21T09:27:55.589Z,27.40
2018-11-21T09:28:55.552Z,27.80
2018-11-21T09:29:55.545Z,27.50
2018-11-21T09:30:55.549Z,28.10
2018-11-21T09:31:55.526Z,29.00
2018-11-21T09:32:55.538Z,27.80
2018-11-21T09:33:55.496Z,28.10
2018-11-21T09:34:55.491Z,27.10
2018-11-21T09:35:55.507Z,27.00
2018-11-21T09:36:55.467Z,27.00
2018-11-21T09:37:55.456Z,27.40
2018-11-21T09:38:55.445Z,28.10
2018-11-21T09:39:55.502Z,27.80
2018-11-21T09:40:55.424Z,26.80
2018-11-21T09:41:55.409Z,27.80
2018-11-21T09:42:55.397Z,26.90
2018-11-21T09:43:55.442Z,27.30
2018-11-21T09:44:55.385Z,27.20
2018-11-21T09:45:55.361Z,27.50
2018-11-21T09:46:55.360Z,27.20
2018-11-21T09:47:55.357Z,27.60
2018-11-21T09:48:55.351Z,27.30
2018-11-21T09:49:55.320Z,27.50
2018-11-21T09:50:55.364Z,28.10
2018-11-21T09:51:55.296Z,27.40
2018-11-21T09:52:55.317Z,28.00
2018-11-21T09:53:55.299Z,28.10
2018-11-21T09:54:55.271Z,27.00
2018-11-21T09:55:55.250Z,27.90
2018-11-21T09:56:55.270Z,27.00
2018-11-21T09:57:55.264Z,26.60
2018-11-21T09:58:55.241Z,26.90
2018-11-21T09:59:55.237Z,27.00
2018-11-21T10:00:55.194Z,27.20
2018-11-21T10:01:55.199Z,26.90
2018-11-21T10:02:55.207Z,26.90
2018-11-21T10:03:55.161Z,27.20
2018-11-21T10:04:55.179Z,26.70
2018-11-21T10:05:55.146Z,26.20
2018-11-21T10:06:55.131Z,27.40
2018-11-21T10:07:55.156Z,26.80
2018-11-21T10:08:55.131Z,27.60
2018-11-21T10:09:55.095Z,28.60
2018-11-21T10:10:55.084Z,26.00
2018-11-21T10:11:55.073Z,26.50
2018-11-21T10:12:55.096Z,26.40
2018-11-21T10:13:55.050Z,26.80
2018-11-21T10:14:55.037Z,26.50
2018-11-21T10:15:55.041Z,27.60
2018-11-21T10:16:55.015Z,27.50
2018-11-21T10:17:55.036Z,26.90
2018-11-21T10:18:55.018Z,26.20
2018-11-21T10:19:55.007Z,27.00
2018-11-21T10:20:54.972Z,26.80
2018-11-21T10:21:54.958Z,28.10
2018-11-21T10:22:54.949Z,27.20
2018-11-21T10:23:54.988Z,26.70
2018-11-21T10:24:54.951Z,26.90
2018-11-21T10:25:54.917Z,27.30
2018-11-21T10:26:54.913Z,28.40
2018-11-21T10:27:54.893Z,26.90
2018-11-21T10:28:54.880Z,28.30
2018-11-21T10:29:54.929Z,27.50
2018-11-21T10:30:54.862Z,28.40
2018-11-21T10:31:54.847Z,26.40
2018-11-21T10:32:54.838Z,27.40
2018-11-21T10:33:54.826Z,28.60
2018-11-21T10:34:54.840Z,27.20
2018-11-21T10:35:54.809Z,26.40
2018-11-21T10:36:54.837Z,28.30
2018-11-21T10:37:54.783Z,27.00
2018-11-21T10:38:54.769Z,27.50
2018-11-21T10:39:54.803Z,28.00
2018-11-21T10:40:54.746Z,26.40
2018-11-21T10:41:54.737Z,27.00
2018-11-21T10:42:54.726Z,27.40
2018-11-21T10:43:54.793Z,27.70
2018-11-21T10:44:54.731Z,27.00
2018-11-21T10:45:54.690Z,26.50
2018-11-21T10:46:54.713Z,26.30
2018-11-21T10:47:54.671Z,26.20
2018-11-21T10:48:54.658Z,26.30
2018-11-21T10:49:54.648Z,28.40
2018-11-21T10:50:54.636Z,28.10
2018-11-21T10:51:54.652Z,27.80
2018-11-21T10:52:54.614Z,25.40
2018-11-21T10:53:54.640Z,27.30
2018-11-21T10:54:54.592Z,26.60
2018-11-21T10:55:54.607Z,26.30
2018-11-21T10:56:54.589Z,27.30
2018-11-21T10:57:54.583Z,26.50
2018-11-21T10:58:54.559Z,26.90
2018-11-21T10:59:54.570Z,26.00
2018-11-21T11:00:54.563Z,25.30
2018-11-21T11:01:54.509Z,26.30
2018-11-21T11:02:54.501Z,25.10
2018-11-21T11:03:54.519Z,24.40
2018-11-21T11:04:54.496Z,25.60
2018-11-21T11:05:54.487Z,26.60
2018-11-21T11:06:54.460Z,27.20
2018-11-21T11:07:54.471Z,26.40
2018-11-21T11:08:54.471Z,26.50
2018-11-21T11:09:54.442Z,26.90
2018-11-21T11:10:54.410Z,25.70
2018-11-21T11:11:54.433Z,26.10
2018-11-21T11:12:54.387Z,27.20
2018-11-21T11:13:54.378Z,25.50
2018-11-21T11:14:54.395Z,25.40
2018-11-21T11:15:54.356Z,25.90
2018-11-21T11:16:54.383Z,25.40
2018-11-21T11:17:59.229Z,25.60
2018-11-21T11:18:55.332Z,26.00
2018-11-21T11:19:54.309Z,26.40
2018-11-21T11:20:54.298Z,25.60
2018-11-21T11:21:54.289Z,25.10
2018-11-21T11:22:54.297Z,27.00
2018-11-21T11:23:54.268Z,26.40
2018-11-21T11:24:54.281Z,26.80
2018-11-21T11:25:54.258Z,26.30
2018-11-21T11:26:54.232Z,27.60
2018-11-21T11:27:54.222Z,25.90
2018-11-21T11:28:54.245Z,26.70
2018-11-21T11:29:54.197Z,25.30
2018-11-21T11:30:54.204Z,25.60
2018-11-21T11:31:54.197Z,26.50
2018-11-21T11:32:54.215Z,26.40
2018-11-21T11:33:54.175Z,26.10
2018-11-21T11:34:54.156Z,26.30
2018-11-21T11:35:54.130Z,25.30
2018-11-21T11:36:54.147Z,26.80
2018-11-21T11:37:54.109Z,26.60
2018-11-21T11:38:54.127Z,26.40
2018-11-21T11:39:54.088Z,23.40
2018-11-21T11:40:54.074Z,25.40
2018-11-21T11:41:54.095Z,25.00
2018-11-21T11:42:54.054Z,25.10
2018-11-21T11:43:54.048Z,26.70
2018-11-21T11:44:54.037Z,24.70
2018-11-21T11:45:54.019Z,24.40
2018-11-21T11:46:54.047Z,24.20
2018-11-21T11:47:53.996Z,25.60
2018-11-21T11:48:53.984Z,25.10
2018-11-21T11:49:53.974Z,26.50
2018-11-21T11:50:53.965Z,26.40
2018-11-21T11:51:54.003Z,26.20
2018-11-21T11:52:53.963Z,23.80
2018-11-21T11:53:53.930Z,22.70
2018-11-21T11:54:53.936Z,25.00
2018-11-21T11:55:53.916Z,23.60
2018-11-21T11:56:53.922Z,23.80
2018-11-21T11:57:53.885Z,23.50
2018-11-21T11:58:53.883Z,23.20
2018-11-21T11:59:53.904Z,21.80
2018-11-21T12:00:53.860Z,22.10
2018-11-21T12:01:53.906Z,22.30
2018-11-21T12:02:53.832Z,23.20
2018-11-21T12:03:57.780Z,22.10
2018-11-21T12:04:53.805Z,22.30
2018-11-21T12:05:53.800Z,21.30
2018-11-21T12:06:53.784Z,21.00
2018-11-21T12:07:53.794Z,21.50
2018-11-21T12:08:53.787Z,20.90
2018-11-21T12:09:53.798Z,21.40
2018-11-21T12:10:53.743Z,22.30
2018-11-21T12:11:53.729Z,21.10
2018-11-21T12:12:53.743Z,21.40
2018-11-21T12:13:53.712Z,21.30
2018-11-21T12:14:53.691Z,21.10
2018-11-21T12:15:53.684Z,20.70
2018-11-21T12:16:53.689Z,21.70
2018-11-21T12:17:53.667Z,20.80
2018-11-21T12:18:53.648Z,21.20
2018-11-21T12:19:53.643Z,21.40
2018-11-21T12:20:53.625Z,20.70
2018-11-21T12:21:53.644Z,21.10
2018-11-21T12:22:53.604Z,20.50
2018-11-21T12:23:53.620Z,21.50
2018-11-21T12:24:53.581Z,21.30
2018-11-21T12:25:53.589Z,21.00
2018-11-21T12:26:53.587Z,20.90
2018-11-21T12:27:53.580Z,22.10
2018-11-21T12:28:53.537Z,21.70
2018-11-21T12:29:53.547Z,21.40
2018-11-21T12:30:53.532Z,21.90
2018-11-21T12:31:53.517Z,22.60
2018-11-21T12:32:53.549Z,22.10
2018-11-21T12:33:53.515Z,21.20
2018-11-21T12:34:53.490Z,21.40
2018-11-21T12:35:53.463Z,21.20
2018-11-21T12:36:53.456Z,21.60
2018-11-21T12:37:53.457Z,21.60
2018-11-21T12:38:53.424Z,22.20
2018-11-21T12:39:53.437Z,21.00
2018-11-21T12:40:53.406Z,21.30
2018-11-21T12:41:53.425Z,20.90
2018-11-21T12:42:53.387Z,20.20
2018-11-21T12:43:53.682Z,21.80
2018-11-21T12:44:53.387Z,20.90
2018-11-21T12:45:53.345Z,21.00
2018-11-21T12:46:53.338Z,21.50
2018-11-21T12:47:53.323Z,20.70
2018-11-21T12:48:53.314Z,21.40
2018-11-21T12:49:53.344Z,20.30
2018-11-21T12:50:53.292Z,20.50
2018-11-21T12:51:53.301Z,20.50
2018-11-21T12:52:53.270Z,20.40